Time;durP1;ratioP1;P1;durP2;ratioP2;P2;SDS_P1;SDS_P2;PMS_P1;PMS_P2;Temp;Humidity;BMP_temperature;BMP_pressure;BME280_temperature;BME280_humidity;BME280_pressure;Samples;Min_cycle;Max_cycle;Signal;HPM_P1;HPM_P2
2022/01/12 00:00:49;;;;;;;;;;;;;;;20.25;47.21;103120.03;5032470;28;5548;-66
2022/01/12 00:03:16;;;;;;;;;;;;;;;20.23;47.18;103116.97;5036078;28;4199;-66
2022/01/12 00:05:43;;;;;;;;;;;;;;;20.15;47.35;103119.16;5035551;28;5641;-66
2022/01/12 00:08:09;;;;;;;;;;;;;;;20.19;47.12;103113.75;5033901;28;5442;-66
2022/01/12 00:10:35;;;;;;;;;;;;;;;20.29;47.01;103114.59;5035155;28;5792;-65
2022/01/12 00:13:02;;;;;;;;;;;;;;;20.24;47.05;103119.25;5034209;28;5900;-65
2022/01/12 00:15:28;;;;;;;;;;;;;;;20.23;47.07;103111.22;5035657;28;5461;-66
2022/01/12 00:17:54;;;;;;;;;;;;;;;20.33;46.82;103114.94;5037217;28;4270;-65
2022/01/12 00:20:21;;;;;;;;;;;;;;;20.26;46.92;103115.78;5036036;28;5549;-66
2022/01/12 00:22:47;;;;;;;;;;;;;;;20.18;47.07;103109.34;5035076;28;4604;-65
2022/01/12 00:33:14;;;;;;;;;;;;;;;20.21;47.06;103094.53;5019967;28;4249;-65
2022/01/12 00:35:43;;;;;;;;;;;;;;;20.19;47.06;103096.50;5018160;28;4558;-67
2022/01/12 00:38:09;;;;;;;;;;;;;;;20.16;47.00;103103.41;5015572;28;5159;-65
2022/01/12 00:40:39;;;;;;;;;;;;;;;20.24;46.77;103101.97;5033228;28;4152;-66
2022/01/12 00:43:05;;;;;;;;;;;;;;;20.29;46.83;103108.84;5033675;28;5873;-65
2022/01/12 00:45:32;;;;;;;;;;;;;;;20.23;46.60;103105.47;5016627;28;4274;-65
2022/01/12 00:47:59;;;;;;;;;;;;;;;20.20;46.80;103107.44;5035628;28;4415;-66
2022/01/12 00:50:25;;;;;;;;;;;;;;;20.23;46.60;103114.09;5035114;28;4167;-66
2022/01/12 00:52:53;;;;;;;;;;;;;;;20.23;46.58;103114.09;5034019;28;4623;-66
2022/01/12 00:55:19;;;;;;;;;;;;;;;20.18;46.52;103113.00;5035429;28;4336;-66
2022/01/12 00:57:46;;;;;;;;;;;;;;;20.24;46.26;103106.97;5032011;28;5050;-66
2022/01/12 01:00:13;;;;;;;;;;;;;;;20.19;46.55;103100.13;5016219;28;4184;-66
2022/01/12 01:02:39;;;;;;;;;;;;;;;20.22;46.31;103103.94;5030410;28;5850;-66
2022/01/12 01:05:05;;;;;;;;;;;;;;;20.26;46.16;103112.91;5033246;28;5493;-66
2022/01/12 01:07:32;;;;;;;;;;;;;;;20.20;46.39;103103.75;5031505;28;4550;-67
2022/01/12 01:10:07;;;;;;;;;;;;;;;20.23;46.28;103100.47;5022269;28;4745;-66
2022/01/12 01:12:36;;;;;;;;;;;;;;;20.24;46.37;103107.72;5033025;28;5250;-66
2022/01/12 01:15:07;;;;;;;;;;;;;;;20.25;46.34;103102.75;5024033;28;4246;-65
2022/01/12 01:25:41;;;;;;;;;;;;;;;20.28;46.22;103090.06;5027821;28;4567;-65
2022/01/12 01:28:09;;;;;;;;;;;;;;;20.26;46.34;103092.75;5036448;28;4232;-66
2022/01/12 01:30:37;;;;;;;;;;;;;;;20.16;46.47;103095.56;5020677;28;4285;-65
2022/01/12 01:33:07;;;;;;;;;;;;;;;20.19;46.49;103094.38;5019310;28;5387;-65
2022/01/12 01:35:35;;;;;;;;;;;;;;;20.15;46.54;103105.53;5050606;28;5562;-66
2022/01/12 01:38:02;;;;;;;;;;;;;;;20.11;46.48;103098.69;5037523;28;5710;-65
2022/01/12 01:40:29;;;;;;;;;;;;;;;20.16;46.37;103101.31;5050510;28;5318;-65
2022/01/12 01:43:10;;;;;;;;;;;;;;;20.17;46.32;103091.31;5037239;28;5804;-66
2022/01/12 01:53:54;;;;;;;;;;;;;;;20.18;46.09;103104.38;5036901;28;4297;-66
2022/01/12 01:56:23;;;;;;;;;;;;;;;20.18;45.99;103100.72;5021912;28;5624;-65
2022/01/12 01:58:49;;;;;;;;;;;;;;;20.24;45.94;103095.47;5025397;28;4462;-65
2022/01/12 02:01:17;;;;;;;;;;;;;;;20.19;45.96;103108.00;5025757;28;4180;-65
2022/01/12 02:03:53;;;;;;;;;;;;;;;20.22;45.94;103109.69;5051769;28;4520;-65
2022/01/12 02:06:20;;;;;;;;;;;;;;;20.21;45.96;103105.31;5017691;28;4395;-66
2022/01/12 02:08:46;;;;;;;;;;;;;;;20.21;45.80;103108.94;5029250;28;5586;-65
2022/01/12 02:11:26;;;;;;;;;;;;;;;20.13;46.13;103108.25;5034098;28;4766;-66
2022/01/12 02:13:56;;;;;;;;;;;;;;;20.22;45.83;103103.94;5020202;28;4452;-65
2022/01/12 02:16:31;;;;;;;;;;;;;;;20.13;45.97;103093.09;5036241;28;4669;-66
2022/01/12 02:19:40;;;;;;;;;;;;;;;20.23;45.99;103096.84;5036526;28;4588;-66
2022/01/12 02:35:52;;;;;;;;;;;;;;;20.18;45.93;103097.84;5025606;28;4032;-65
2022/01/12 02:41:03;;;;;;;;;;;;;;;20.13;45.71;103084.47;5035868;28;5488;-65
2022/01/12 02:53:55;;;;;;;;;;;;;;;20.15;45.77;103091.16;5036263;28;4271;-65
2022/01/12 02:56:23;;;;;;;;;;;;;;;20.11;45.68;103087.94;5019383;28;5290;-66
2022/01/12 02:58:50;;;;;;;;;;;;;;;20.09;45.69;103088.56;5052192;28;4173;-66
2022/01/12 03:03:52;;;;;;;;;;;;;;;20.22;45.48;103092.44;5035140;28;5617;-65
2022/01/12 03:06:22;;;;;;;;;;;;;;;20.21;45.53;103093.78;5019204;28;4190;-66
2022/01/12 03:08:50;;;;;;;;;;;;;;;20.13;45.71;103079.47;5034019;28;4748;-65
2022/01/12 03:11:17;;;;;;;;;;;;;;;20.16;45.60;103091.91;5017621;28;5762;-66
2022/01/12 03:13:47;;;;;;;;;;;;;;;20.18;45.65;103075.59;5034557;28;5660;-66
2022/01/12 03:16:16;;;;;;;;;;;;;;;20.19;45.58;103080.00;5019900;28;5673;-66
2022/01/12 03:18:44;;;;;;;;;;;;;;;20.13;45.71;103078.72;5036244;28;4764;-65
2022/01/12 03:21:11;;;;;;;;;;;;;;;20.16;45.69;103071.78;5036122;28;4244;-66
2022/01/12 03:23:37;;;;;;;;;;;;;;;20.17;45.68;103079.06;5038075;28;4369;-65
2022/01/12 03:26:04;;;;;;;;;;;;;;;20.15;45.70;103084.66;5038727;28;4772;-65
2022/01/12 03:28:31;;;;;;;;;;;;;;;20.07;45.78;103079.75;5035676;28;5489;-65
2022/01/12 03:38:41;;;;;;;;;;;;;;;20.17;45.43;103076.94;5018411;28;5665;-65
2022/01/12 03:41:07;;;;;;;;;;;;;;;20.11;45.52;103075.69;5036023;28;5693;-65
2022/01/12 03:43:34;;;;;;;;;;;;;;;20.06;45.63;103074.59;5051770;28;5579;-66
2022/01/12 03:46:00;;;;;;;;;;;;;;;20.11;45.31;103076.44;5036096;28;4200;-66
2022/01/12 03:48:27;;;;;;;;;;;;;;;20.13;45.43;103078.72;5019439;28;4270;-65
2022/01/12 03:50:56;;;;;;;;;;;;;;;20.08;45.52;103072.63;5016698;28;4381;-66
2022/01/12 03:53:23;;;;;;;;;;;;;;;20.12;45.42;103077.97;5047865;28;4223;-66
2022/01/12 03:55:49;;;;;;;;;;;;;;;20.18;45.29;103081.34;5018016;28;5834;-66
2022/01/12 03:58:15;;;;;;;;;;;;;;;20.17;45.31;103082.69;5018193;28;4219;-66
2022/01/12 04:00:42;;;;;;;;;;;;;;;20.17;45.36;103084.81;5016243;28;5688;-66
2022/01/12 04:03:09;;;;;;;;;;;;;;;20.25;45.03;103082.63;5034119;28;5448;-65
2022/01/12 04:08:21;;;;;;;;;;;;;;;20.16;45.21;103080.41;5035484;28;5970;-65
2022/01/12 04:10:51;;;;;;;;;;;;;;;20.11;45.45;103078.56;5050026;28;5300;-65
2022/01/12 04:13:17;;;;;;;;;;;;;;;20.19;45.39;103082.13;5034787;28;4213;-65
2022/01/12 04:15:45;;;;;;;;;;;;;;;20.08;45.49;103072.63;5017464;28;4583;-65
2022/01/12 04:18:12;;;;;;;;;;;;;;;20.11;45.37;103081.44;5017591;28;4477;-65
2022/01/12 04:20:45;;;;;;;;;;;;;;;20.12;45.29;103077.22;5020385;28;5655;-65
2022/01/12 04:23:17;;;;;;;;;;;;;;;20.06;45.38;103075.34;5029560;28;4167;-66
2022/01/12 04:25:51;;;;;;;;;;;;;;;20.11;45.39;103069.94;5013507;28;4180;-65
2022/01/12 04:28:17;;;;;;;;;;;;;;;20.14;45.21;103083.91;5015311;28;4134;-66
2022/01/12 04:30:43;;;;;;;;;;;;;;;20.11;45.27;103075.69;5014575;28;5690;-66
2022/01/12 04:33:10;;;;;;;;;;;;;;;20.15;45.10;103081.78;5015164;28;4248;-65
2022/01/12 04:35:44;;;;;;;;;;;;;;;20.04;45.21;103083.81;5015826;28;5123;-65
2022/01/12 04:38:10;;;;;;;;;;;;;;;20.07;45.20;103081.88;5014400;28;4220;-66
2022/01/12 04:40:36;;;;;;;;;;;;;;;20.02;45.19;103080.78;5014736;28;4679;-66
2022/01/12 04:43:03;;;;;;;;;;;;;;;20.13;45.01;103072.97;5022425;28;4021;-66
2022/01/12 04:50:41;;;;;;;;;;;;;;;20.21;44.83;103080.16;5014722;28;5663;-66
2022/01/12 04:53:07;;;;;;;;;;;;;;;20.11;45.01;103079.31;5014455;28;4188;-66
2022/01/12 04:55:34;;;;;;;;;;;;;;;20.05;45.04;103079.59;5019127;28;4618;-66
2022/01/12 04:58:01;;;;;;;;;;;;;;;20.13;44.93;103078.72;5020052;28;5526;-66
2022/01/12 05:00:30;;;;;;;;;;;;;;;20.17;44.82;103084.81;5023278;28;5175;-66
2022/01/12 05:13:40;;;;;;;;;;;;;;;20.12;45.07;103089.47;5019261;28;4432;-66
2022/01/12 05:16:06;;;;;;;;;;;;;;;20.16;45.04;103094.78;5034721;28;5647;-65
2022/01/12 05:18:33;;;;;;;;;;;;;;;20.04;45.09;103086.69;5016267;28;4493;-66
2022/01/12 05:21:00;;;;;;;;;;;;;;;20.02;45.06;103086.53;5017465;28;4176;-65
2022/01/12 05:23:26;;;;;;;;;;;;;;;20.13;45.07;103084.47;5015982;28;4751;-66
2022/01/12 05:25:53;;;;;;;;;;;;;;;20.04;45.16;103078.06;5016586;28;5349;-66
2022/01/12 05:28:19;;;;;;;;;;;;;;;20.17;44.79;103084.81;5019408;28;4469;-65
2022/01/12 05:30:47;;;;;;;;;;;;;;;20.12;44.96;103100.22;5016384;28;4759;-67
2022/01/12 05:33:15;;;;;;;;;;;;;;;20.13;44.75;103087.34;5015677;28;4230;-66
2022/01/12 05:35:43;;;;;;;;;;;;;;;20.02;44.99;103086.53;5032642;28;4684;-66
2022/01/12 05:38:11;;;;;;;;;;;;;;;20.08;44.83;103084.13;5017166;28;5420;-65
2022/01/12 05:40:37;;;;;;;;;;;;;;;20.09;44.89;103074.16;5017246;28;4475;-65
2022/01/12 05:43:07;;;;;;;;;;;;;;;20.05;44.97;103079.59;5018053;28;4278;-65
2022/01/12 05:45:34;;;;;;;;;;;;;;;20.01;44.95;103061.97;5015649;28;5713;-65
2022/01/12 05:50:33;;;;;;;;;;;;;;;20.04;44.51;103055.06;5019336;28;6321;-70
2022/01/12 05:53:07;;;;;;;;;;;;;;;20.06;44.69;103046.56;5017279;28;5801;-65
2022/01/12 05:55:34;;;;;;;;;;;;;;;20.14;44.72;103045.75;5016562;28;4266;-65
2022/01/12 05:58:00;;;;;;;;;;;;;;;20.07;45.08;103036.59;5016587;28;4480;-64
2022/01/12 06:00:27;;;;;;;;;;;;;;;20.12;45.10;103034.06;5021362;28;5367;-64
2022/01/12 06:02:57;;;;;;;;;;;;;;;20.04;45.08;103046.44;5015793;28;4369;-65
2022/01/12 06:05:24;;;;;;;;;;;;;;;20.00;45.29;103042.47;5010135;28;4942;-63
2022/01/12 06:07:51;;;;;;;;;;;;;;;20.18;45.49;103048.94;5007821;28;5799;-66
2022/01/12 06:10:18;;;;;;;;;;;;;;;20.15;45.65;103050.13;5020427;28;4145;-66
2022/01/12 06:12:45;;;;;;;;;;;;;;;20.13;45.97;103042.09;5015598;28;4650;-67
2022/01/12 06:15:17;;;;;;;;;;;;;;;20.12;46.18;103045.56;5031523;28;4179;-67
2022/01/12 06:17:43;;;;;;;;;;;;;;;20.19;45.89;103050.47;5027607;28;4012;-66
2022/01/12 06:20:10;;;;;;;;;;;;;;;20.01;46.19;103047.59;5021946;28;6410;-65
2022/01/12 06:22:57;;;;;;;;;;;;;;;20.09;46.04;103051.16;5019604;28;4251;-64
2022/01/12 06:25:23;;;;;;;;;;;;;;;20.08;45.99;103041.00;5017363;28;5636;-65
2022/01/12 06:27:53;;;;;;;;;;;;;;;20.16;46.06;103048.75;5009315;28;4581;-64
2022/01/12 06:32:52;;;;;;;;;;;;;;;20.04;46.28;103049.31;5019661;28;4558;-64
2022/01/12 06:35:18;;;;;;;;;;;;;;;20.16;46.05;103057.38;5018167;28;4688;-64
2022/01/12 06:37:45;;;;;;;;;;;;;;;20.15;46.27;103055.88;5015956;28;5546;-65
2022/01/12 06:40:14;;;;;;;;;;;;;;;20.01;46.36;103073.47;5016175;28;6342;-67
2022/01/12 06:42:41;;;;;;;;;;;;;;;17.38;43.21;103083.31;5022176;28;4172;-64
2022/01/12 06:45:08;;;;;;;;;;;;;;;18.63;44.69;103074.59;5016915;28;4170;-66
2022/01/12 06:47:35;;;;;;;;;;;;;;;19.45;44.45;103062.34;5012861;28;4208;-63
2022/01/12 06:50:01;;;;;;;;;;;;;;;19.74;44.07;103061.88;5013613;28;5715;-64
2022/01/12 06:52:28;;;;;;;;;;;;;;;19.84;44.00;103064.88;5014057;28;5329;-64
2022/01/12 06:54:56;;;;;;;;;;;;;;;19.83;43.80;103074.84;5022984;28;5777;-63
2022/01/12 06:57:23;;;;;;;;;;;;;;;19.85;43.84;103077.88;5014608;28;4188;-64
2022/01/12 06:59:49;;;;;;;;;;;;;;;19.86;43.76;103077.31;5014750;28;4243;-64
2022/01/12 07:02:18;;;;;;;;;;;;;;;19.89;43.71;103072.47;5021073;28;4264;-63
2022/01/12 07:04:48;;;;;;;;;;;;;;;19.90;43.56;103085.50;5033206;28;6058;-64
2022/01/12 07:07:17;;;;;;;;;;;;;;;19.91;43.61;103087.03;5021688;28;5662;-64
2022/01/12 07:09:45;;;;;;;;;;;;;;;19.89;43.68;103089.72;5029668;28;4592;-63
2022/01/12 07:12:16;;;;;;;;;;;;;;;19.91;43.90;103077.66;5016297;28;4226;-64
2022/01/12 07:14:43;;;;;;;;;;;;;;;19.36;42.54;103085.25;5022412;28;5565;-63
2022/01/12 07:17:12;;;;;;;;;;;;;;;19.50;44.49;103089.31;5031094;28;4224;-63
2022/01/12 07:19:38;;;;;;;;;;;;;;;19.78;44.12;103090.22;5018093;28;5299;-64
2022/01/12 07:22:06;;;;;;;;;;;;;;;19.64;44.36;103081.91;5018038;28;4269;-68
2022/01/12 07:24:32;;;;;;;;;;;;;;;19.34;45.37;103085.81;5011524;28;5483;-67
2022/01/12 07:26:58;;;;;;;;;;;;;;;19.35;46.24;103078.72;5016502;28;5459;-68
2022/01/12 07:29:25;;;;;;;;;;;;;;;19.30;46.72;103081.81;5016055;28;4577;-65
2022/01/12 07:31:51;;;;;;;;;;;;;;;19.51;46.34;103090.06;5015864;28;5474;-66
2022/01/12 07:34:17;;;;;;;;;;;;;;;19.20;46.84;103082.47;5015691;28;5777;-67
2022/01/12 07:36:44;;;;;;;;;;;;;;;19.43;46.72;103090.16;5015415;28;3994;-71
2022/01/12 07:39:10;;;;;;;;;;;;;;;19.48;46.46;103080.53;5016578;28;3994;-66
2022/01/12 07:41:36;;;;;;;;;;;;;;;19.50;46.58;103077.06;5015376;28;4604;-66
2022/01/12 07:44:03;;;;;;;;;;;;;;;19.40;46.21;103089.22;5017820;28;4254;-66
2022/01/12 07:46:29;;;;;;;;;;;;;;;19.53;46.82;103093.88;5016425;28;4055;-66
2022/01/12 07:48:56;;;;;;;;;;;;;;;19.59;47.08;103088.66;5016568;28;4114;-67
2022/01/12 07:51:22;;;;;;;;;;;;;;;19.60;47.25;103095.16;5017045;28;4172;-66
2022/01/12 07:53:48;;;;;;;;;;;;;;;19.56;47.23;103106.31;5019114;28;4560;-66
2022/01/12 07:56:15;;;;;;;;;;;;;;;19.59;47.79;103105.91;5016638;28;4601;-66
2022/01/12 07:58:41;;;;;;;;;;;;;;;19.72;47.97;103104.84;5017804;28;5597;-66
2022/01/12 08:01:07;;;;;;;;;;;;;;;19.64;48.66;103095.50;5018666;28;4111;-62
2022/01/12 08:03:34;;;;;;;;;;;;;;;19.65;48.45;103089.19;5017522;28;4821;-63
2022/01/12 08:06:00;;;;;;;;;;;;;;;19.66;48.56;103096.44;5014864;28;4291;-63
2022/01/12 08:08:27;;;;;;;;;;;;;;;19.65;48.10;103112.19;5017366;28;4034;-61
2022/01/12 08:10:53;;;;;;;;;;;;;;;19.62;49.03;103116.22;5010820;28;5508;-61
2022/01/12 08:13:20;;;;;;;;;;;;;;;19.68;48.77;103127.47;5016044;28;4139;-63
2022/01/12 08:15:46;;;;;;;;;;;;;;;19.61;49.06;103134.81;5015611;28;5106;-63
2022/01/12 08:18:12;;;;;;;;;;;;;;;19.63;49.38;103132.13;5016396;28;5393;-64
2022/01/12 08:20:39;;;;;;;;;;;;;;;19.69;49.10;103134.03;5033179;28;4195;-65
2022/01/12 08:23:05;;;;;;;;;;;;;;;19.65;49.06;103117.94;5037224;28;5724;-64
2022/01/12 08:25:32;;;;;;;;;;;;;;;19.62;49.74;103119.09;5036353;28;4945;-64
2022/01/12 08:27:58;;;;;;;;;;;;;;;19.73;49.25;103122.88;5033209;28;5531;-66
2022/01/12 08:30:29;;;;;;;;;;;;;;;19.62;49.60;103119.09;5035149;28;4234;-65
2022/01/12 08:32:55;;;;;;;;;;;;;;;19.65;49.83;103123.69;5036070;28;4522;-65
2022/01/12 08:35:21;;;;;;;;;;;;;;;19.62;49.87;103133.47;5034653;28;4176;-64
2022/01/12 08:37:48;;;;;;;;;;;;;;;19.72;49.82;103132.84;5029557;28;4070;-63
2022/01/12 08:40:14;;;;;;;;;;;;;;;19.64;49.95;103127.88;5031602;28;5876;-63
2022/01/12 08:42:41;;;;;;;;;;;;;;;19.59;50.04;103134.66;5034779;28;5633;-63
2022/01/12 08:45:07;;;;;;;;;;;;;;;19.61;49.61;103131.94;5034435;28;4099;-63
2022/01/12 08:47:34;;;;;;;;;;;;;;;19.62;49.81;103139.22;5032360;28;4613;-63
2022/01/12 08:50:00;;;;;;;;;;;;;;;19.58;49.69;103141.72;5035352;28;4812;-64
2022/01/12 08:52:28;;;;;;;;;;;;;;;19.65;49.43;103140.94;5040092;28;5544;-65
2022/01/12 08:54:54;;;;;;;;;;;;;;;19.59;50.07;103137.53;5038176;28;6011;-65
2022/01/12 08:57:21;;;;;;;;;;;;;;;19.61;50.51;103140.56;5039343;28;4029;-63
2022/01/12 08:59:47;;;;;;;;;;;;;;;19.62;50.05;103139.22;5037338;28;4035;-62
2022/01/12 09:02:14;;;;;;;;;;;;;;;19.68;49.24;103150.47;5034877;28;4174;-62
2022/01/12 09:04:44;;;;;;;;;;;;;;;19.78;49.76;103147.72;5036678;28;4778;-71
2022/01/12 09:07:10;;;;;;;;;;;;;;;19.79;50.33;103143.50;5034618;28;4521;-74
2022/01/12 09:09:37;;;;;;;;;;;;;;;19.87;49.62;103149.94;5030471;28;4113;-74
2022/01/12 09:12:03;;;;;;;;;;;;;;;19.88;49.90;103148.59;5040361;28;4155;-72
2022/01/12 09:14:30;;;;;;;;;;;;;;;19.83;49.83;103138.09;5038253;28;4670;-73
2022/01/12 09:16:57;;;;;;;;;;;;;;;19.84;50.02;103139.63;5039871;28;4579;-73
2022/01/12 09:19:24;;;;;;;;;;;;;;;19.90;49.68;103143.00;5035490;28;4101;-74
2022/01/12 09:21:50;;;;;;;;;;;;;;;19.91;49.35;103149.53;5037422;28;4789;-72
2022/01/12 09:24:17;;;;;;;;;;;;;;;19.95;49.92;103139.16;5038124;28;3944;-72
2022/01/12 09:26:43;;;;;;;;;;;;;;;19.96;49.85;103148.53;5036183;28;5534;-73
2022/01/12 09:29:10;;;;;;;;;;;;;;;19.94;49.71;103142.59;5039519;28;4069;-72
2022/01/12 09:31:36;;;;;;;;;;;;;;;20.04;49.66;103135.59;5038816;28;4335;-73
2022/01/12 09:34:03;;;;;;;;;;;;;;;19.90;50.17;103140.13;5040269;28;4685;-75
2022/01/12 09:36:30;;;;;;;;;;;;;;;19.97;49.90;103130.66;5038728;28;5320;-73
2022/01/12 09:38:56;;;;;;;;;;;;;;;20.02;49.59;103135.41;5037168;28;4223;-75
2022/01/12 09:41:25;;;;;;;;;;;;;;;20.04;49.81;103135.59;5039238;28;4045;-75
2022/01/12 09:43:51;;;;;;;;;;;;;;;20.02;49.08;103135.41;5039617;28;4633;-74
2022/01/12 09:46:19;;;;;;;;;;;;;;;20.17;50.00;103133.72;5038503;28;4616;-61
2022/01/12 09:48:45;;;;;;;;;;;;;;;20.43;49.21;103130.16;5037257;28;4094;-62
2022/01/12 09:51:11;;;;;;;;;;;;;;;20.37;48.64;103129.66;5036965;28;4077;-63
2022/01/12 09:53:38;;;;;;;;;;;;;;;20.36;48.97;103118.72;5037563;28;5613;-62
2022/01/12 09:56:14;;;;;;;;;;;;;;;20.34;49.07;103118.56;5036372;28;4786;-62
2022/01/12 09:58:40;;;;;;;;;;;;;;;20.27;48.65;103123.84;5025347;28;5432;-62
2022/01/12 10:01:06;;;;;;;;;;;;;;;20.23;48.91;103116.97;5036385;28;4083;-63
2022/01/12 10:03:33;;;;;;;;;;;;;;;20.23;48.79;103109.09;5036889;28;4130;-61
2022/01/12 10:06:09;;;;;;;;;;;;;;;20.28;49.11;103110.97;5034868;28;4171;-63
2022/01/12 10:08:36;;;;;;;;;;;;;;;20.31;48.97;103106.13;5035681;28;4162;-66
2022/01/12 10:11:06;;;;;;;;;;;;;;;20.31;48.89;103117.63;5037958;28;4267;-61
2022/01/12 10:13:37;;;;;;;;;;;;;;;20.28;48.82;103115.97;5020802;28;4199;-62
2022/01/12 10:16:10;;;;;;;;;;;;;;;20.30;48.79;103114.00;5036391;28;5449;-63
2022/01/12 10:18:44;;;;;;;;;;;;;;;20.35;48.92;103109.34;5036922;28;4346;-63
2022/01/12 10:21:10;;;;;;;;;;;;;;;20.35;48.68;103099.94;5038610;28;4184;-66
2022/01/12 10:23:39;;;;;;;;;;;;;;;20.31;48.28;103100.38;5020953;28;5268;-72
2022/01/12 10:26:05;;;;;;;;;;;;;;;20.42;48.84;103099.84;5038511;28;4175;-70
2022/01/12 10:28:34;;;;;;;;;;;;;;;20.34;48.82;103093.44;5035343;28;5333;-69
2022/01/12 10:31:01;;;;;;;;;;;;;;;20.33;49.13;103097.66;5038853;28;5294;-68
2022/01/12 10:33:28;;;;;;;;;;;;;;;20.29;48.96;103097.31;5036465;28;4055;-69
2022/01/12 10:35:56;;;;;;;;;;;;;;;20.33;48.69;103102.66;5019019;28;5320;-67
2022/01/12 10:38:22;;;;;;;;;;;;;;;20.38;48.91;103098.75;5037061;28;4038;-68
2022/01/12 10:40:52;;;;;;;;;;;;;;;20.38;48.95;103095.88;5036909;28;5371;-68
2022/01/12 10:43:39;;;;;;;;;;;;;;;20.35;48.76;103100.72;5036603;28;4143;-66
2022/01/12 10:46:06;;;;;;;;;;;;;;;20.31;48.90;103088.84;5036242;28;4147;-67
2022/01/12 10:48:43;;;;;;;;;;;;;;;20.33;48.70;103086.16;5037585;28;4685;-69
2022/01/12 10:51:09;;;;;;;;;;;;;;;20.31;48.89;103077.34;5038282;28;4113;-67
2022/01/12 10:53:36;;;;;;;;;;;;;;;20.30;48.80;103081.59;5035677;28;4482;-69
2022/01/12 10:56:07;;;;;;;;;;;;;;;20.26;48.94;103093.53;5035295;28;4189;-63
2022/01/12 10:58:35;;;;;;;;;;;;;;;20.34;48.73;103095.53;5035591;28;5335;-63
2022/01/12 11:01:02;;;;;;;;;;;;;;;20.32;48.33;103099.03;5025436;28;4265;-63
2022/01/12 11:03:29;;;;;;;;;;;;;;;20.36;48.19;103107.97;5036748;28;4073;-63
2022/01/12 11:05:55;;;;;;;;;;;;;;;20.35;48.23;103106.47;5034207;28;4268;-63
2022/01/12 11:08:25;;;;;;;;;;;;;;;20.28;48.18;103107.31;5036701;28;4125;-68
2022/01/12 11:10:52;;;;;;;;;;;;;;;20.29;48.43;103105.94;5032560;28;5334;-69
2022/01/12 11:13:19;;;;;;;;;;;;;;;20.36;48.53;103107.22;5035010;28;5237;-67
2022/01/12 11:15:45;;;;;;;;;;;;;;;20.43;48.35;103104.25;5035752;28;4132;-68
2022/01/12 11:18:11;;;;;;;;;;;;;;;20.44;48.27;103102.91;5037399;28;4196;-67
2022/01/12 11:20:38;;;;;;;;;;;;;;;20.46;48.50;103094.44;5020015;28;4221;-67
2022/01/12 11:23:05;;;;;;;;;;;;;;;20.38;48.88;103099.50;5023970;28;5308;-63
2022/01/12 11:25:32;;;;;;;;;;;;;;;20.40;48.33;103087.41;5034645;28;6451;-63
2022/01/12 11:28:14;;;;;;;;;;;;;;;20.32;48.19;103073.13;5034124;28;4113;-61
2022/01/12 11:30:45;;;;;;;;;;;;;;;20.03;46.60;103082.28;5031642;28;4279;-65
2022/01/12 11:33:12;;;;;;;;;;;;;;;18.66;45.83;103079.16;5036365;28;4199;-64
2022/01/12 11:35:39;;;;;;;;;;;;;;;19.58;47.95;103095.75;5031493;28;4195;-70
2022/01/12 11:38:06;;;;;;;;;;;;;;;19.84;46.72;103090.75;5024158;28;5352;-63
2022/01/12 11:40:32;;;;;;;;;;;;;;;20.06;46.95;103098.34;5013916;28;4213;-62
2022/01/12 11:42:58;;;;;;;;;;;;;;;20.17;46.80;103099.19;5031489;28;4233;-62
2022/01/12 11:45:25;;;;;;;;;;;;;;;20.18;46.78;103095.75;5033604;28;5239;-61
2022/01/12 11:47:51;;;;;;;;;;;;;;;20.22;46.88;103101.81;5034545;28;4260;-62
2022/01/12 11:50:17;;;;;;;;;;;;;;;20.27;46.77;103105.78;5035678;28;4230;-61
2022/01/12 11:52:44;;;;;;;;;;;;;;;20.34;46.96;103098.41;5034868;28;4186;-66
2022/01/12 11:59:05;;;;;;;;;;;;;;;20.31;47.17;103103.25;5028094;28;5783;-62
2022/01/12 12:01:41;;;;;;;;;;;;;;;20.29;47.22;103103.84;5033356;28;5289;-62
2022/01/12 12:04:08;;;;;;;;;;;;;;;20.32;47.33;103106.88;5034417;28;4398;-62
2022/01/12 12:06:35;;;;;;;;;;;;;;;20.34;47.00;103104.94;5032284;28;5520;-62
2022/01/12 12:09:05;;;;;;;;;;;;;;;20.36;47.30;103101.47;5032855;28;4089;-62
2022/01/12 12:11:32;;;;;;;;;;;;;;;20.37;47.13;103098.00;5033665;28;4240;-62
2022/01/12 12:13:59;;;;;;;;;;;;;;;20.42;47.36;103096.22;5033006;28;4152;-62
2022/01/12 12:16:25;;;;;;;;;;;;;;;20.44;47.28;103096.38;5034071;28;4435;-61
2022/01/12 12:18:52;;;;;;;;;;;;;;;20.40;47.28;103099.69;5034898;28;5629;-62
2022/01/12 12:21:18;;;;;;;;;;;;;;;20.40;47.51;103101.81;5036469;28;4186;-62
2022/01/12 12:23:46;;;;;;;;;;;;;;;20.40;47.52;103108.31;5033469;28;4197;-60
2022/01/12 12:26:12;;;;;;;;;;;;;;;19.72;44.42;103106.97;5034663;28;4122;-62
2022/01/12 12:28:38;;;;;;;;;;;;;;;19.73;46.27;103111.38;5048142;28;4722;-70
2022/01/12 12:31:05;;;;;;;;;;;;;;;19.98;46.25;103114.94;5035622;28;4257;-68
2022/01/12 12:33:31;;;;;;;;;;;;;;;20.12;46.20;103123.25;5032998;28;4257;-67
2022/01/12 12:36:03;;;;;;;;;;;;;;;20.13;46.57;103114.00;5031246;28;4262;-67
2022/01/12 12:38:30;;;;;;;;;;;;;;;20.16;46.61;103124.34;5032332;28;5712;-66
2022/01/12 12:40:57;;;;;;;;;;;;;;;20.19;46.34;103125.28;5033065;28;4736;-68
2022/01/12 12:43:26;;;;;;;;;;;;;;;20.21;46.37;103119.69;5032948;28;4542;-67
2022/01/12 12:45:54;;;;;;;;;;;;;;;20.20;46.23;103112.41;5033574;28;4458;-67
2022/01/12 12:48:21;;;;;;;;;;;;;;;20.16;46.32;103112.06;5033292;28;4224;-66
2022/01/12 12:50:53;;;;;;;;;;;;;;;20.21;46.05;103108.19;5032745;28;5639;-66
2022/01/12 12:53:19;;;;;;;;;;;;;;;19.88;44.58;103120.63;5032724;28;5627;-65
2022/01/12 12:55:46;;;;;;;;;;;;;;;19.58;46.15;103115.09;5032338;28;4201;-63
2022/01/12 12:58:13;;;;;;;;;;;;;;;19.93;46.08;103113.09;5030887;28;4083;-64
2022/01/12 13:00:40;;;;;;;;;;;;;;;20.05;45.67;103122.72;5031337;28;5614;-62
2022/01/12 13:03:06;;;;;;;;;;;;;;;20.11;45.62;103122.47;5033355;28;4263;-62
2022/01/12 13:05:34;;;;;;;;;;;;;;;20.14;45.48;103120.53;5032530;28;6272;-62
2022/01/12 13:08:01;;;;;;;;;;;;;;;20.29;45.28;103123.22;5033822;28;5710;-62
2022/01/12 13:10:28;;;;;;;;;;;;;;;20.22;45.82;103115.44;5034340;28;4075;-62
2022/01/12 13:12:59;;;;;;;;;;;;;;;20.21;45.68;103111.81;5034984;28;5445;-67
2022/01/12 13:15:26;;;;;;;;;;;;;;;20.32;45.80;103118.38;5035583;28;4246;-68
2022/01/12 13:18:05;;;;;;;;;;;;;;;20.39;45.91;103117.56;5036546;28;4166;-67
2022/01/12 13:23:21;;;;;;;;;;;;;;;19.81;46.21;103112.03;5035784;28;5672;-69
2022/01/12 13:25:54;;;;;;;;;;;;;;;20.08;46.71;103112.16;5038720;28;4421;-68
2022/01/12 13:28:20;;;;;;;;;;;;;;;20.24;46.29;103112.72;5040405;28;4175;-68
2022/01/12 13:30:48;;;;;;;;;;;;;;;20.33;46.14;103108.41;5041638;28;5280;-67
2022/01/12 13:33:22;;;;;;;;;;;;;;;20.35;46.16;103117.97;5039915;28;4072;-67
2022/01/12 13:35:48;;;;;;;;;;;;;;;20.41;46.06;103118.50;5036742;28;5473;-67
2022/01/12 13:38:14;;;;;;;;;;;;;;;20.29;46.51;103103.84;5037214;28;4231;-67
2022/01/12 13:40:44;;;;;;;;;;;;;;;20.35;46.26;103106.47;5019671;28;5618;-69
2022/01/12 13:43:12;;;;;;;;;;;;;;;20.33;46.29;103096.91;5037401;28;4112;-67
2022/01/12 13:45:41;;;;;;;;;;;;;;;20.22;46.72;103104.69;5036317;28;4274;-67
2022/01/12 13:48:16;;;;;;;;;;;;;;;20.27;46.66;103117.28;5037165;28;4075;-70
2022/01/12 13:50:43;;;;;;;;;;;;;;;20.36;46.55;103112.97;5037047;28;4594;-67
2022/01/12 13:53:10;;;;;;;;;;;;;;;20.37;46.43;103112.38;5033426;28;4693;-67
2022/01/12 13:55:46;;;;;;;;;;;;;;;20.20;46.57;103113.19;5025641;28;4199;-68
2022/01/12 13:58:12;;;;;;;;;;;;;;;20.19;46.81;103110.88;5022972;28;5536;-67
2022/01/12 14:00:39;;;;;;;;;;;;;;;20.27;46.73;103105.78;5034250;28;4291;-70
2022/01/12 14:03:16;;;;;;;;;;;;;;;20.27;46.92;103111.53;5033121;28;4234;-63
2022/01/12 14:05:42;;;;;;;;;;;;;;;20.25;46.83;103115.03;5034831;28;4174;-65
2022/01/12 14:08:13;;;;;;;;;;;;;;;20.29;46.86;103103.06;5037012;28;4250;-67
2022/01/12 14:10:43;;;;;;;;;;;;;;;20.39;46.45;103112.56;5030673;28;4158;-64
2022/01/12 14:13:10;;;;;;;;;;;;;;;20.36;46.66;103113.72;5033245;28;4157;-65
2022/01/12 14:15:36;;;;;;;;;;;;;;;20.32;47.00;103124.16;5036223;28;4225;-65
2022/01/12 14:18:05;;;;;;;;;;;;;;;20.32;46.74;103116.28;5036045;28;4136;-64
2022/01/12 14:20:38;;;;;;;;;;;;;;;20.34;47.00;103121.44;5033773;28;5375;-65
2022/01/12 14:23:06;;;;;;;;;;;;;;;20.36;46.63;103125.25;5030925;28;5234;-64